Terminal Aerodrome Forecast
Issued by NWS

Home | Current Version | Previous Version | Text Only | Print | Product List | Glossary On
Versions: 1 2 3 4 5 6 7 8 9 10 11 12 13 14 15 16 17 18 19 20 21 22 23 24 25 26 27 28 29 30 31 32 33 34
000
FTUS43 KSGF 221145 CCA
TAFBBG
TAF COR
KBBG 221145Z 2212/2312 00000KT 4SM BR BKN009
      TEMPO 2212/2214 1/2SM FG OVC002
     FM221400 00000KT 2SM BR BKN008
     FM221700 19004KT P6SM SCT045
     FM230800 VRB03KT 2SM BR SCT100
     FM231100 VRB03KT 2SM BR BKN045=

USA.gov is the U.S. government's official web portal to all federal, state and local government web resources and services.